Latest Weather Observations for Thargomindah

IDQ60801

Issued at 6:05 pm EST Thursday 2 October 2014 (issued every 30 minutes, with the page automatically refreshed every 10 minutes)

About weather observations | Map of weather stations | Latest weather observations for QLD | Other Formats
Station Details ID: 045025 Name: THARGOMINDAH AIRPORT Lat: -27.99 Lon: 143.81 Height: 130.89 m
Data from the previous 72 hours. | See also: Recent months at Thargomindah
Date/Time
EST
Temp
°C
App
Temp
°C
Dew
Point
Rel
Hum
%
Delta-T
°C
Wind Press
QNH
hPa
Press
MSL
hPa
Rain
since 9 am
mm
Dir
 
Spd
km/h
Gust
km/h
Spd
kts
Gust
kts
02/06:00pm 25.4 19.5 -6.0 12 13.0 SSE 17 22 9 12 1019.1 1018.4 0.0
02/05:30pm 25.9 21.1 -5.6 12 13.2 ESE 11 17 6 9 1019.0 - 0.0
02/05:00pm 25.9 20.0 -5.6 12 13.2 SSE 17 26 9 14 1018.9 - 0.0
02/04:30pm 26.4 20.9 -5.3 12 13.5 ESE 15 26 8 14 1018.8 - 0.0
02/04:00pm 26.2 21.1 -5.4 12 13.4 SE 13 26 7 14 1019.0 - 0.0
02/03:30pm 25.9 20.8 -5.6 12 13.2 ESE 13 22 7 12 1019.2 - 0.0
02/03:00pm 25.6 20.9 -4.8 13 12.9 ESE 11 20 6 11 1019.5 1018.9 0.0
02/02:30pm 24.7 18.2 -5.5 13 12.6 ESE 20 28 11 15 1020.0 - 0.0
02/02:00pm 24.2 19.0 -5.9 13 12.4 SE 13 20 7 11 1020.5 - 0.0
02/01:30pm 24.0 17.8 -5.1 14 12.1 SE 19 32 10 17 1020.9 - 0.0
02/01:00pm 23.6 18.1 -5.4 14 12.0 E 15 26 8 14 1021.2 - 0.0
02/12:30pm 23.2 16.9 -5.7 14 11.8 SE 19 28 10 15 1021.7 - 0.0
02/12:00pm 22.7 16.3 -5.2 15 11.4 E 20 41 11 22 1022.2 1021.5 0.0
02/11:30am 22.2 16.3 -5.6 15 11.3 ESE 17 26 9 14 1022.6 - 0.0
02/11:00am 21.6 15.2 -5.3 16 10.9 E 20 32 11 17 1023.1 - 0.0
02/10:30am 20.9 14.0 -5.8 16 10.7 ESE 22 33 12 18 1023.4 - 0.0
02/10:00am 20.1 13.3 -4.9 18 10.1 ESE 22 35 12 19 1023.7 - 0.0
02/09:30am 19.7 11.8 -4.5 19 9.8 E 28 39 15 21 1024.0 - 0.0
02/09:00am 18.7 12.3 -5.4 19 9.4 ESE 20 35 11 19 1024.0 1023.3 0.0
02/08:30am 17.6 10.1 -4.3 22 8.7 E 26 39 14 21 1024.0 - 0.0
02/08:00am 17.1 10.4 -4.2 23 8.5 ESE 22 35 12 19 1023.6 - 0.0
02/07:30am 15.5 8.8 -4.4 25 7.7 ESE 22 35 12 19 1023.4 - 0.0
02/07:00am 14.4 8.3 -4.3 27 7.2 SE 19 28 10 15 1023.1 - 0.0
02/06:30am 13.8 8.0 -4.4 28 6.9 SE 17 24 9 13 1022.7 - 0.0
02/06:00am 13.7 8.7 -4.0 29 6.8 SE 13 20 7 11 1022.4 1021.8 0.0
02/05:30am 13.9 8.9 -4.3 28 7.0 SE 13 17 7 9 1022.0 - 0.0
02/05:00am 14.3 9.3 -4.4 27 7.2 SE 13 20 7 11 1021.7 - 0.0
02/04:30am 14.8 9.4 -4.5 26 7.4 SE 15 22 8 12 1021.4 - 0.0
02/04:00am 15.0 9.2 -4.3 26 7.5 SE 17 24 9 13 1021.1 - 0.0
02/03:30am 15.3 9.1 -4.6 25 7.7 SSE 19 24 10 13 1020.9 - 0.0
02/03:00am 15.7 9.3 -4.8 24 7.9 SSE 20 28 11 15 1020.8 1020.2 0.0
02/02:30am 16.1 9.9 -4.4 24 8.0 SSE 19 28 10 15 1021.0 - 0.0
02/02:00am 16.4 10.6 -4.8 23 8.2 SSE 17 26 9 14 1021.3 - 0.0
02/01:30am 16.8 10.6 -5.0 22 8.4 SSE 19 26 10 14 1021.4 - 0.0
02/01:00am 17.3 11.4 -5.2 21 8.8 SSE 17 22 9 12 1021.6 - 0.0
02/12:30am 17.9 11.7 -5.3 20 9.1 SSE 19 26 10 14 1021.7 - 0.0
02/12:00am 18.4 12.1 -5.6 19 9.3 SSE 19 30 10 16 1021.8 1021.2 0.0
 
Date/Time
EST
Temp
°C
App
Temp
°C
Dew
Point
Rel
Hum
%
Delta-T
°C
Wind Press
QNH
hPa
Press
MSL
hPa
Rain
since 9 am
mm
Dir
 
Spd
km/h
Gust
km/h
Spd
kts
Gust
kts
01/11:30pm 18.9 12.5 -5.2 19 9.5 SSE 20 32 11 17 1021.6 - 0.0
01/11:00pm 19.4 13.1 -4.1 20 9.6 SSE 20 30 11 16 1021.6 - 0.0
01/10:30pm 19.8 13.7 -3.8 20 9.7 SSE 19 26 10 14 1021.7 - 0.0
01/10:00pm 20.7 14.5 -3.0 20 10.0 SSE 20 30 11 16 1021.5 - 0.0
01/09:30pm 21.1 15.0 -2.0 21 10.0 SSE 20 26 11 14 1021.2 - 0.0
01/09:00pm 22.0 16.0 -1.3 21 10.2 SSE 20 33 11 18 1021.0 1020.4 0.0
01/08:30pm 22.5 16.7 -1.6 20 10.6 SSE 19 24 10 13 1020.7 - 0.0
01/08:00pm 23.1 17.6 -1.8 19 10.9 SSE 17 20 9 11 1020.4 - 0.0
01/07:30pm 23.9 17.8 -2.6 17 11.6 S 20 28 11 15 1020.0 - 0.0
01/07:00pm 24.7 18.5 -2.8 16 12.1 S 20 30 11 16 1019.5 - 0.0
01/06:30pm 25.5 19.3 -3.0 15 12.5 S 20 24 11 13 1019.1 - 0.0
01/06:00pm 26.5 20.0 -2.2 15 12.9 SSE 22 26 12 14 1018.9 1018.1 0.0
01/05:30pm 27.1 20.7 -1.7 15 13.1 S 22 28 12 15 1018.6 - 0.0
01/05:00pm 27.6 21.7 -0.5 16 13.1 S 20 30 11 16 1018.4 - 0.0
01/04:30pm 27.5 21.9 1.1 18 12.7 S 20 28 11 15 1018.4 - 0.0
01/04:00pm 28.7 23.2 2.1 18 13.1 SSW 20 33 11 18 1018.3 - 0.0
01/03:30pm 28.2 22.8 2.4 19 12.8 SSW 20 32 11 17 1018.6 - 0.0
01/03:00pm 27.9 22.7 3.6 21 12.2 SSE 20 28 11 15 1018.7 1018.0 0.0
01/02:30pm 28.2 23.8 4.5 22 12.2 SSE 17 24 9 13 1019.0 - 0.0
01/02:00pm 27.7 23.3 4.7 23 11.8 SSE 17 30 9 16 1019.4 - 0.0
01/01:30pm 27.3 22.5 4.4 23 11.7 S 19 35 10 19 1019.7 - 0.0
01/01:00pm 27.3 22.0 5.0 24 11.5 S 22 32 12 17 1020.0 - 0.0
01/12:30pm 26.3 22.6 4.7 25 11.0 S 13 26 7 14 1020.5 - 0.0
01/12:00pm 26.5 21.7 4.9 25 11.0 SSE 19 28 10 15 1020.8 1020.3 0.0
01/11:30am 25.9 21.5 4.9 26 10.7 SSE 17 24 9 13 1021.1 - 0.0
01/11:00am 25.1 20.4 5.3 28 10.1 SE 19 28 10 15 1021.2 - 0.0
01/10:30am 24.4 19.5 5.2 29 9.7 ESE 20 32 11 17 1021.4 - 0.0
01/10:00am 23.9 19.1 5.8 31 9.3 SSE 20 37 11 20 1022.0 - 0.0
01/09:30am 22.8 17.6 5.3 32 8.8 SE 22 33 12 18 1022.0 - 0.0
01/09:00am 22.4 16.8 5.4 33 8.5 SE 24 33 13 18 1022.0 1021.4 0.0
01/08:30am 21.4 14.5 4.5 33 8.3 SSE 30 43 16 23 1021.6 - 0.0
01/08:00am 21.8 15.5 3.5 30 8.8 SSE 26 37 14 20 1021.2 - 0.0
01/07:30am 21.7 15.6 2.9 29 9.0 SE 24 39 13 21 1020.6 - 0.0
01/07:00am 21.3 16.8 2.1 28 9.0 SSE 15 20 8 11 1020.0 - 0.0
01/06:30am 21.0 16.1 1.8 28 8.9 SSE 17 26 9 14 1019.3 - 0.0
01/06:00am 21.0 16.7 1.3 27 9.0 SSE 13 19 7 10 1018.8 1018.1 0.0
01/05:30am 21.6 16.6 1.3 26 9.4 SSE 17 24 9 13 1018.2 - 0.0
01/05:00am 21.8 17.2 1.5 26 9.4 SSE 15 20 8 11 1017.7 - 0.0
01/04:30am 22.2 17.2 1.3 25 9.7 S 17 24 9 13 1017.1 - 0.0
01/04:00am 22.4 17.0 1.4 25 9.8 S 19 20 10 11 1016.8 - 0.0
01/03:30am 20.2 16.3 1.1 28 8.7 SSW 11 13 6 7 1016.5 - 0.0
01/03:00am 18.4 15.5 1.4 32 7.7 SSE 6 7 3 4 1016.0 1015.3 0.0
01/02:30am 20.1 16.6 1.0 28 8.7 SSE 9 9 5 5 1015.7 - 0.0
01/02:00am 22.1 18.3 1.7 26 9.5 S 11 13 6 7 1015.8 - 0.0
01/01:30am 21.5 18.3 0.7 25 9.5 SSE 7 11 4 6 1016.0 - 0.0
01/01:00am 23.2 19.3 0.9 23 10.4 SSE 11 13 6 7 1016.1 - 0.0
01/12:30am 23.6 19.7 1.3 23 10.5 S 11 13 6 7 1016.1 - 0.0
01/12:00am 23.2 19.7 1.5 24 10.2 SSE 9 11 5 6 1016.1 1015.5 0.0
 
Date/Time
EST
Temp
°C
App
Temp
°C
Dew
Point
Rel
Hum
%
Delta-T
°C
Wind Press
QNH
hPa
Press
MSL
hPa
Rain
since 9 am
mm
Dir
 
Spd
km/h
Gust
km/h
Spd
kts
Gust
kts
30/11:30pm 23.0 19.9 1.4 24 10.1 S 7 11 4 6 1016.1 - 0.0
30/11:00pm 24.5 21.1 2.0 23 10.8 S 9 11 5 6 1016.0 - 0.0
30/10:30pm 25.1 21.7 1.9 22 11.1 S 9 11 5 6 1015.8 - 0.0
30/10:00pm 26.0 22.1 1.3 20 11.8 S 11 13 6 7 1015.7 - 0.0
30/09:30pm 26.1 23.6 1.4 20 11.8 SE 4 6 2 3 1015.6 - 0.0
30/09:00pm 27.9 24.2 -0.2 16 13.2 S 9 11 5 6 1015.3 1014.8 0.0
30/08:30pm 28.6 24.6 0.3 16 13.5 SSE 11 13 6 7 1015.2 - 0.0
30/08:00pm 28.4 24.4 0.2 16 13.4 S 11 15 6 8 1014.8 - 0.0
30/07:30pm 28.9 24.8 -0.3 15 13.8 S 11 11 6 6 1014.3 - 0.0
30/07:00pm 30.3 26.3 0.8 15 14.4 S 11 13 6 7 1014.0 - 0.0
30/06:30pm 31.8 28.3 1.0 14 15.2 SW 9 11 5 6 1013.6 - 0.0
30/06:00pm 33.5 29.2 1.3 13 16.2 SW 13 19 7 10 1013.4 1012.9 0.0
30/05:30pm 34.5 29.1 1.0 12 16.9 SW 19 24 10 13 1013.2 - 0.0
30/05:00pm 34.9 29.9 1.3 12 17.0 WSW 17 24 9 13 1013.0 - 0.0
30/04:30pm 35.4 30.6 0.5 11 17.5 WSW 15 22 8 12 1012.9 - 0.0
30/04:00pm 36.5 30.5 1.3 11 18.0 WNW 22 30 12 16 1012.9 - 0.0
30/03:30pm 36.3 32.2 2.4 12 17.6 W 13 19 7 10 1013.1 - 0.0
30/03:00pm 35.8 31.5 0.8 11 17.7 WSW 13 24 7 13 1013.5 1012.9 0.0
30/02:30pm 36.1 31.8 1.0 11 17.8 W 13 24 7 13 1013.7 - 0.0
30/02:00pm 36.0 30.5 2.1 12 17.5 SW 20 28 11 15 1014.0 - 0.0
30/01:30pm 36.0 30.5 2.1 12 17.5 W 20 33 11 18 1014.4 - 0.0
30/01:00pm 35.8 30.5 2.0 12 17.4 WNW 19 28 10 15 1014.9 - 0.0
30/12:30pm 35.1 30.5 1.5 12 17.1 W 15 28 8 15 1015.3 - 0.0
30/12:00pm 34.2 29.8 2.9 14 16.2 WNW 15 22 8 12 1015.7 1015.2 0.0
30/11:30am 33.5 28.3 2.4 14 15.9 NNW 19 28 10 15 1016.1 - 0.0
30/11:00am 33.4 28.7 3.3 15 15.6 WNW 17 28 9 15 1016.3 - 0.0
30/10:30am 32.7 27.9 4.5 17 14.9 NW 19 26 10 14 1016.7 - 0.0
30/10:00am 31.8 26.6 5.3 19 14.1 NW 22 30 12 16 1017.0 - 0.0
30/09:30am 31.1 26.5 5.5 20 13.6 NW 19 28 10 15 1017.1 - 0.0
30/09:00am 27.4 24.8 3.2 21 12.1 W 6 9 3 5 1017.1 1016.5 0.0
30/08:30am 24.9 21.9 1.1 21 11.2 E 6 9 3 5 1016.9 - 0.0
30/08:00am 22.9 19.2 0.1 22 10.4 S 9 11 5 6 1016.9 - 0.0
30/07:30am 21.2 17.9 -0.1 24 9.5 SSW 7 11 4 6 1016.6 - 0.0
30/07:00am 19.6 16.7 -0.9 25 8.9 NNE 4 6 2 3 1015.8 - 0.0
30/06:30am 18.1 14.5 -2.2 25 8.5 N 7 7 4 4 1015.4 - 0.0
30/06:00am 18.8 15.2 -2.2 24 8.8 NNW 7 11 4 6 1014.9 1014.4 0.0
30/05:30am 19.5 14.4 -2.2 23 9.2 N 15 19 8 10 1014.4 - 0.0
30/05:00am 18.5 13.8 -1.9 25 8.6 NNE 13 17 7 9 1013.7 - 0.0
30/04:30am 18.6 13.5 -1.8 25 8.6 NNE 15 19 8 10 1013.5 - 0.0
30/04:00am 17.0 12.8 -0.7 30 7.6 NE 11 15 6 8 1013.7 - 0.0
30/03:30am 16.4 12.6 -0.8 31 7.3 E 9 11 5 6 1013.9 - 0.0
30/03:00am 17.2 15.1 -1.0 29 7.7 CALM 0 4 0 2 1014.1 1013.6 0.0
30/02:30am 17.5 14.0 -1.2 28 7.9 S 7 9 4 5 1014.0 - 0.0
30/02:00am 19.2 15.7 -1.3 25 8.8 ENE 7 9 4 5 1014.2 - 0.0
30/01:30am 19.5 15.6 -1.6 24 9.0 NE 9 9 5 5 1014.3 - 0.0
30/01:00am 19.2 15.4 -0.7 26 8.7 NE 9 11 5 6 1014.5 - 0.0
30/12:30am 19.1 15.6 -1.4 25 8.8 NE 7 9 4 5 1014.7 - 0.0
30/12:00am 20.3 17.0 -0.9 24 9.3 NNE 6 6 3 3 1015.0 1014.5 0.0
 
Date/Time
EST
Temp
°C
App
Temp
°C
Dew
Point
Rel
Hum
%
Delta-T
°C
Wind Press
QNH
hPa
Press
MSL
hPa
Rain
since 9 am
mm
Dir
 
Spd
km/h
Gust
km/h
Spd
kts
Gust
kts
29/11:30pm 20.6 17.0 -1.8 22 9.7 N 7 9 4 5 1015.2 - 0.0
29/11:00pm 20.8 17.0 -1.1 23 9.6 N 9 11 5 6 1015.3 - 0.0
29/10:30pm 21.5 17.6 -1.7 21 10.1 N 9 9 5 5 1015.4 - 0.0
29/10:00pm 23.7 19.9 -3.6 16 11.7 NE 7 9 4 5 1015.3 - 0.0
29/09:30pm 25.0 20.9 -3.4 15 12.3 NE 9 11 5 6 1015.4 - 0.0
29/09:00pm 25.4 21.3 -3.1 15 12.5 NNE 9 11 5 6 1015.3 1014.8 0.0
29/08:30pm 26.3 21.8 -3.3 14 13.0 NE 11 11 6 6 1015.0 - 0.0
29/08:00pm 26.7 22.2 -3.0 14 13.2 NE 11 13 6 7 1014.7 - 0.0
29/07:30pm 27.7 23.2 -3.2 13 13.8 NE 11 13 6 7 1014.4 - 0.0
29/07:00pm 29.0 24.9 -3.2 12 14.5 ENE 9 9 5 5 1014.1 - 0.0
29/06:30pm 30.8 26.7 -3.0 11 15.5 ENE 9 11 5 6 1013.7 - 0.0

Other Formats:

Comma delimited format used in spreadsheet applications
http://www.bom.gov.au/fwo/IDQ60801/IDQ60801.95492.axf

JavaScript Object Notation format (JSON) in row-major order
http://www.bom.gov.au/fwo/IDQ60801/IDQ60801.95492.json